createdAt,value
2022-10-11T00:01:16.581Z,87.13
2022-10-11T00:03:43.012Z,87.53
2022-10-11T00:06:09.606Z,87.22
2022-10-11T00:08:36.173Z,87.70
2022-10-11T00:11:05.664Z,87.37
2022-10-11T00:13:32.274Z,87.40
2022-10-11T00:15:58.744Z,87.31
2022-10-11T00:18:25.293Z,87.88
2022-10-11T00:21:05.466Z,87.55
2022-10-11T00:23:33.126Z,87.19
2022-10-11T00:26:01.948Z,87.48
2022-10-11T00:28:28.671Z,87.93
2022-10-11T00:30:55.132Z,88.00
2022-10-11T00:33:21.503Z,88.01
2022-10-11T00:35:48.660Z,88.08
2022-10-11T00:38:15.451Z,88.15
2022-10-11T00:40:41.903Z,88.26
2022-10-11T00:43:22.296Z,87.81
2022-10-11T00:45:57.716Z,87.97
2022-10-11T00:48:27.606Z,88.39
2022-10-11T00:50:58.177Z,88.42
2022-10-11T00:53:25.783Z,88.37
2022-10-11T00:55:59.511Z,88.66
2022-10-11T00:58:26.500Z,88.42
2022-10-11T01:00:54.095Z,88.07
2022-10-11T01:03:25.056Z,88.72
2022-10-11T01:05:51.736Z,88.71
2022-10-11T01:08:18.627Z,88.60
2022-10-11T01:10:45.150Z,88.66
2022-10-11T01:13:40.417Z,88.83
2022-10-11T01:16:22.882Z,88.29
2022-10-11T01:18:52.594Z,89.24
2022-10-11T01:21:42.053Z,88.93
2022-10-11T01:24:38.110Z,88.71
2022-10-11T01:27:28.652Z,89.28
2022-10-11T01:30:04.341Z,89.22
2022-10-11T01:32:40.550Z,88.84
2022-10-11T01:35:16.268Z,88.78
2022-10-11T01:37:55.214Z,89.43
2022-10-11T01:40:27.725Z,88.93
2022-10-11T01:42:55.806Z,89.34
2022-10-11T01:45:22.549Z,89.25
2022-10-11T01:48:01.793Z,88.84
2022-10-11T01:50:41.234Z,89.36
2022-10-11T01:53:22.749Z,88.97
2022-10-11T01:56:04.507Z,89.18
2022-10-11T01:59:02.159Z,89.35
2022-10-11T02:01:52.177Z,89.46
2022-10-11T02:04:32.633Z,89.11
2022-10-11T02:07:06.654Z,89.38
2022-10-11T02:09:47.017Z,89.47
2022-10-11T02:12:20.646Z,89.00
2022-10-11T02:14:50.786Z,89.35
2022-10-11T02:17:21.316Z,89.41
2022-10-11T02:19:52.099Z,88.97
2022-10-11T02:22:32.579Z,89.13
2022-10-11T02:25:01.584Z,89.27
2022-10-11T02:27:33.193Z,89.72
2022-10-11T02:30:02.757Z,89.67
2022-10-11T02:32:31.962Z,89.30
2022-10-11T02:35:01.261Z,90.02
2022-10-11T02:37:35.897Z,89.07
2022-10-11T02:40:44.139Z,89.26
2022-10-11T02:43:30.007Z,89.39
2022-10-11T02:46:00.121Z,89.21
2022-10-11T02:48:29.155Z,89.30
2022-10-11T02:50:57.295Z,89.34
2022-10-11T02:53:25.509Z,89.68
2022-10-11T02:55:53.972Z,89.69
2022-10-11T02:58:21.416Z,89.94
2022-10-11T03:00:48.102Z,89.99
2022-10-11T03:03:14.639Z,89.55
2022-10-11T03:05:41.515Z,89.91
2022-10-11T03:08:09.879Z,89.18
2022-10-11T03:10:37.438Z,89.76
2022-10-11T03:13:04.005Z,89.83
2022-10-11T03:15:30.534Z,89.75
2022-10-11T03:17:57.104Z,89.79
2022-10-11T03:20:24.591Z,89.89
2022-10-11T03:22:51.172Z,89.95
2022-10-11T03:25:17.741Z,89.55
2022-10-11T03:27:44.169Z,90.16
2022-10-11T03:30:14.127Z,90.11
2022-10-11T03:32:43.823Z,89.72
2022-10-11T03:35:10.221Z,90.12
2022-10-11T03:37:36.622Z,89.92
2022-10-11T03:40:04.367Z,89.68
2022-10-11T03:42:30.798Z,90.02
2022-10-11T03:44:57.199Z,89.73
2022-10-11T03:47:23.814Z,89.98
2022-10-11T03:49:50.470Z,89.80
2022-10-11T03:52:16.829Z,90.01
2022-10-11T03:54:43.551Z,90.52
2022-10-11T03:57:09.920Z,89.89
2022-10-11T03:59:36.258Z,89.72
2022-10-11T04:02:02.691Z,90.43
2022-10-11T04:04:29.711Z,89.88
2022-10-11T04:06:56.144Z,90.04
2022-10-11T04:09:22.583Z,90.53
2022-10-11T04:11:48.924Z,90.40
2022-10-11T04:14:15.293Z,90.60
2022-10-11T04:16:41.934Z,90.58
2022-10-11T04:19:08.745Z,90.26
2022-10-11T04:21:35.186Z,90.39
2022-10-11T04:24:01.599Z,90.39
2022-10-11T04:26:27.973Z,90.03
2022-10-11T04:28:54.711Z,90.17
2022-10-11T04:31:21.167Z,90.64
2022-10-11T04:33:47.524Z,90.19
2022-10-11T04:36:13.884Z,90.39
2022-10-11T04:38:40.316Z,90.70
2022-10-11T04:41:12.048Z,90.37
2022-10-11T04:43:39.192Z,90.51
2022-10-11T04:46:06.704Z,90.76
2022-10-11T04:48:33.380Z,90.60
2022-10-11T04:51:00.024Z,90.91
2022-10-11T04:53:26.467Z,90.60
2022-10-11T04:56:01.615Z,90.56
2022-10-11T04:58:29.276Z,90.28
2022-10-11T05:00:55.740Z,90.83
2022-10-11T05:03:22.695Z,90.51
2022-10-11T05:05:49.142Z,90.98
2022-10-11T05:08:15.725Z,91.17
2022-10-11T05:10:42.215Z,90.27
2022-10-11T05:13:08.646Z,90.98
2022-10-11T05:15:34.996Z,90.74
2022-10-11T05:18:01.555Z,90.69
2022-10-11T05:20:27.948Z,90.33
2022-10-11T05:22:54.358Z,91.20
2022-10-11T05:25:20.759Z,90.48
2022-10-11T05:27:47.145Z,90.45
2022-10-11T05:30:13.562Z,90.59
2022-10-11T05:32:40.155Z,91.00
2022-10-11T05:35:07.061Z,90.85
2022-10-11T05:37:33.475Z,90.34
2022-10-11T05:39:59.884Z,91.26
2022-10-11T05:42:26.226Z,90.70
2022-10-11T05:44:52.568Z,90.97
2022-10-11T05:47:18.925Z,90.62
2022-10-11T05:49:45.301Z,91.09
2022-10-11T05:52:13.153Z,91.01
2022-10-11T05:54:39.514Z,91.05
2022-10-11T05:57:05.874Z,90.67
2022-10-11T05:59:32.485Z,90.87
2022-10-11T06:01:58.870Z,91.46
2022-10-11T06:04:25.339Z,90.99
2022-10-11T06:06:51.679Z,90.54
2022-10-11T06:09:18.043Z,90.92
2022-10-11T06:11:45.434Z,90.76
2022-10-11T06:14:12.455Z,90.93
2022-10-11T06:16:38.793Z,90.81
2022-10-11T06:19:05.166Z,90.52
2022-10-11T06:21:31.599Z,91.16
2022-10-11T06:24:01.339Z,91.02
2022-10-11T06:26:28.716Z,90.92
2022-10-11T06:28:55.207Z,90.97
2022-10-11T06:31:21.719Z,90.74
2022-10-11T06:33:48.120Z,91.21
2022-10-11T06:36:16.720Z,91.30
2022-10-11T06:38:45.322Z,90.78
2022-10-11T06:41:22.218Z,91.27
2022-10-11T06:43:51.137Z,91.41
2022-10-11T06:46:19.900Z,91.62
2022-10-11T06:48:47.378Z,91.18
2022-10-11T06:51:16.899Z,91.06
2022-10-11T06:53:43.831Z,91.13
2022-10-11T06:56:12.133Z,91.80
2022-10-11T06:58:40.067Z,91.26
2022-10-11T07:01:09.462Z,91.02
2022-10-11T07:03:36.502Z,91.59
2022-10-11T07:06:09.415Z,91.11
2022-10-11T07:08:37.202Z,91.16
2022-10-11T07:11:06.238Z,91.54
2022-10-11T07:13:32.658Z,90.86
2022-10-11T07:16:08.493Z,91.51
2022-10-11T07:18:35.788Z,91.31
2022-10-11T07:21:04.936Z,91.19
2022-10-11T07:23:31.421Z,90.88
2022-10-11T07:25:58.850Z,90.97
2022-10-11T07:28:25.769Z,91.23
2022-10-11T07:30:52.255Z,91.04
2022-10-11T07:33:18.624Z,91.31
2022-10-11T07:35:48.390Z,91.84
2022-10-11T07:38:15.940Z,91.52
2022-10-11T07:40:45.248Z,90.74
2022-10-11T07:43:13.048Z,91.41
2022-10-11T07:45:45.340Z,90.84
2022-10-11T07:48:11.725Z,91.48
2022-10-11T07:50:38.300Z,91.24
2022-10-11T07:53:04.798Z,91.57
2022-10-11T07:55:35.407Z,91.30
2022-10-11T07:58:01.745Z,91.38
2022-10-11T08:00:28.147Z,90.75
2022-10-11T08:02:54.479Z,90.88
2022-10-11T08:05:20.927Z,90.66
2022-10-11T08:07:48.698Z,90.83
2022-10-11T08:10:15.853Z,90.76
2022-10-11T08:12:42.179Z,90.87
2022-10-11T08:15:08.934Z,91.53
2022-10-11T08:17:35.435Z,91.15
2022-10-11T08:20:01.891Z,90.67
2022-10-11T08:22:28.225Z,90.87
2022-10-11T08:24:54.682Z,90.86
2022-10-11T08:27:21.089Z,91.15
2022-10-11T08:29:47.572Z,91.24
2022-10-11T08:32:14.028Z,91.14
2022-10-11T08:34:40.476Z,91.20
2022-10-11T08:37:09.699Z,90.97
2022-10-11T08:39:36.189Z,90.66
2022-10-11T08:42:12.744Z,91.11
2022-10-11T08:47:44.276Z,90.73
2022-10-11T08:50:19.027Z,90.53
2022-10-11T08:53:03.394Z,90.78
2022-10-11T08:55:43.919Z,90.76
2022-10-11T08:58:17.228Z,90.92
2022-10-11T09:01:14.839Z,90.66
2022-10-11T09:03:44.883Z,90.99
2022-10-11T09:06:23.049Z,90.79
2022-10-11T09:09:07.661Z,90.98
2022-10-11T09:12:03.894Z,90.66
2022-10-11T09:15:09.889Z,90.58
2022-10-11T09:18:19.576Z,91.06
2022-10-11T09:21:01.104Z,90.81
2022-10-11T09:23:33.417Z,90.51
2022-10-11T09:26:19.799Z,90.61
2022-10-11T09:29:04.350Z,90.77
2022-10-11T09:31:31.863Z,90.73
2022-10-11T09:34:06.888Z,90.62
2022-10-11T09:36:43.898Z,90.21
2022-10-11T09:39:33.220Z,90.32
2022-10-11T09:42:07.657Z,89.86
2022-10-11T09:44:35.456Z,90.16
2022-10-11T09:47:01.880Z,90.27
2022-10-11T09:49:33.402Z,90.15
2022-10-11T09:52:02.985Z,90.41
2022-10-11T09:54:44.160Z,90.16
2022-10-11T09:57:25.224Z,90.18
2022-10-11T10:00:20.567Z,90.24
2022-10-11T10:02:52.516Z,90.34
2022-10-11T10:05:22.533Z,90.56
2022-10-11T10:08:04.995Z,90.00
2022-10-11T10:10:44.917Z,89.96
2022-10-11T10:13:40.599Z,90.57
2022-10-11T10:16:11.799Z,90.04
2022-10-11T10:18:44.099Z,90.06
2022-10-11T10:21:14.749Z,90.14
2022-10-11T10:23:42.507Z,89.77
2022-10-11T10:26:20.961Z,89.61
2022-10-11T10:29:05.479Z,89.42
2022-10-11T10:31:49.522Z,89.04
2022-10-11T10:34:34.832Z,88.75
2022-10-11T10:37:15.503Z,88.87
2022-10-11T10:39:48.167Z,89.46
2022-10-11T10:42:18.752Z,89.15
2022-10-11T10:44:53.764Z,89.55
2022-10-11T10:47:26.135Z,89.64
2022-10-11T10:50:06.270Z,89.12
2022-10-11T10:52:53.665Z,89.27
2022-10-11T10:55:41.717Z,89.19
2022-10-11T10:58:26.302Z,88.74
2022-10-11T11:00:58.949Z,88.84
2022-10-11T11:03:46.119Z,88.54
2022-10-11T11:06:26.613Z,88.78
2022-10-11T11:08:52.940Z,89.31
2022-10-11T11:11:29.084Z,88.87
2022-10-11T11:14:17.261Z,89.04
2022-10-11T11:17:07.559Z,89.10
2022-10-11T11:20:11.483Z,88.76
2022-10-11T11:23:35.601Z,89.01
2022-10-11T11:26:26.588Z,88.90
2022-10-11T11:29:02.303Z,88.09
2022-10-11T11:31:58.025Z,88.69
2022-10-11T11:34:49.118Z,88.62
2022-10-11T11:37:34.398Z,88.17
2022-10-11T11:40:24.854Z,88.37
2022-10-11T11:42:59.389Z,88.20
2022-10-11T11:45:51.983Z,87.86
2022-10-11T11:48:24.608Z,88.22
2022-10-11T11:50:58.599Z,87.64
2022-10-11T11:53:42.568Z,88.14
2022-10-11T11:56:27.705Z,88.01
2022-10-11T11:59:10.151Z,87.63
2022-10-11T12:01:52.523Z,88.33
2022-10-11T12:04:25.643Z,88.17
2022-10-11T12:07:16.244Z,87.69
2022-10-11T12:09:46.112Z,88.17
2022-10-11T12:12:35.377Z,87.54
2022-10-11T12:15:27.038Z,87.38
2022-10-11T12:17:53.386Z,87.71
2022-10-11T12:20:26.117Z,87.43
2022-10-11T12:23:24.071Z,87.79
2022-10-11T12:26:28.592Z,87.55
2022-10-11T12:29:01.095Z,87.02
2022-10-11T12:31:35.817Z,87.20
2022-10-11T12:34:02.193Z,86.83
2022-10-11T12:36:43.589Z,87.21
2022-10-11T12:39:19.563Z,87.45
2022-10-11T12:41:49.717Z,86.97
2022-10-11T12:44:19.059Z,86.97
2022-10-11T12:46:53.433Z,86.99
2022-10-11T12:49:29.283Z,87.27
2022-10-11T12:52:00.889Z,87.30
2022-10-11T12:54:42.523Z,87.24
2022-10-11T12:57:12.132Z,87.05
2022-10-11T12:59:45.250Z,86.78
2022-10-11T13:02:39.780Z,87.15
2022-10-11T13:05:15.552Z,86.48
2022-10-11T13:07:42.754Z,86.69
2022-10-11T13:10:15.836Z,86.57
2022-10-11T13:12:45.194Z,86.41
2022-10-11T13:15:16.929Z,86.04
2022-10-11T13:17:43.619Z,86.25
2022-10-11T13:20:32.241Z,86.34
2022-10-11T13:22:58.716Z,86.50
2022-10-11T13:25:37.558Z,86.55
2022-10-11T13:28:08.747Z,86.10
2022-10-11T13:30:37.232Z,85.68
2022-10-11T13:33:08.564Z,86.02
2022-10-11T13:35:37.454Z,85.87
2022-10-11T13:38:07.915Z,85.65
2022-10-11T13:40:35.601Z,85.22
2022-10-11T13:43:05.153Z,85.56
2022-10-11T13:45:32.702Z,85.44
2022-10-11T13:47:59.111Z,85.44
2022-10-11T13:50:34.555Z,84.64
2022-10-11T13:55:42.080Z,84.41
2022-10-11T13:58:19.190Z,83.82
2022-10-11T14:00:57.972Z,83.96
2022-10-11T14:03:36.091Z,84.07
2022-10-11T14:06:03.081Z,84.03
2022-10-11T14:08:41.769Z,83.59
2022-10-11T14:11:09.995Z,83.24
2022-10-11T14:13:36.388Z,83.37
2022-10-11T14:16:08.368Z,82.83
2022-10-11T14:18:49.255Z,83.25
2022-10-11T14:21:24.725Z,84.05
2022-10-11T14:24:04.241Z,83.80
2022-10-11T14:26:34.840Z,83.61
2022-10-11T14:29:05.712Z,83.86
2022-10-11T14:31:34.327Z,84.21
2022-10-11T14:34:03.862Z,83.41
2022-10-11T14:36:30.608Z,84.18
2022-10-11T14:38:57.013Z,83.66
2022-10-11T14:41:24.056Z,83.76
2022-10-11T14:43:50.445Z,83.06
2022-10-11T14:46:25.069Z,83.17
2022-10-11T14:48:56.549Z,82.95
2022-10-11T14:51:30.086Z,83.41
2022-10-11T14:53:57.492Z,83.71
2022-10-11T14:56:23.855Z,83.45
2022-10-11T14:58:50.309Z,83.60
2022-10-11T15:01:17.775Z,83.91
2022-10-11T15:03:44.388Z,83.13
2022-10-11T15:06:18.442Z,83.58
2022-10-11T15:08:44.853Z,83.96
2022-10-11T15:11:13.492Z,83.83
2022-10-11T15:13:39.870Z,83.48
2022-10-11T15:16:07.212Z,83.53
2022-10-11T15:18:34.530Z,83.49
2022-10-11T15:21:01.155Z,83.58
2022-10-11T15:23:27.596Z,83.37
2022-10-11T15:25:54.019Z,83.06
2022-10-11T15:28:31.273Z,83.29
2022-10-11T15:30:57.978Z,83.58
2022-10-11T15:33:24.901Z,82.99
2022-10-11T15:35:51.335Z,83.32
2022-10-11T15:38:22.050Z,83.44
2022-10-11T15:40:49.504Z,83.18
2022-10-11T15:43:18.745Z,83.58
2022-10-11T15:45:47.416Z,83.40
2022-10-11T15:48:15.502Z,83.70
2022-10-11T15:50:42.318Z,83.23
2022-10-11T15:53:19.047Z,83.72
2022-10-11T15:55:50.832Z,83.91
2022-10-11T15:58:22.857Z,83.13
2022-10-11T16:00:51.208Z,83.53
2022-10-11T16:03:18.086Z,83.95
2022-10-11T16:05:45.122Z,83.81
2022-10-11T16:08:12.228Z,84.20
2022-10-11T16:10:39.723Z,83.64
2022-10-11T16:13:06.729Z,83.52
2022-10-11T16:15:34.739Z,83.78
2022-10-11T16:18:02.304Z,83.96
2022-10-11T16:20:28.800Z,83.84
2022-10-11T16:22:55.308Z,84.01
2022-10-11T16:25:22.579Z,83.99
2022-10-11T16:27:49.243Z,84.06
2022-10-11T16:30:16.834Z,84.11
2022-10-11T16:32:44.375Z,84.65
2022-10-11T16:35:13.281Z,84.09
2022-10-11T16:37:39.666Z,84.42
2022-10-11T16:40:07.982Z,84.10
2022-10-11T16:42:34.710Z,84.11
2022-10-11T16:45:01.242Z,84.29
2022-10-11T16:47:27.614Z,83.92
2022-10-11T16:49:53.974Z,84.08
2022-10-11T16:52:20.601Z,84.39
2022-10-11T16:54:47.871Z,84.37
2022-10-11T16:57:16.584Z,84.45
2022-10-11T16:59:43.208Z,84.34
2022-10-11T17:02:18.677Z,84.57
2022-10-11T17:04:46.108Z,85.25
2022-10-11T17:07:13.518Z,84.68
2022-10-11T17:09:44.511Z,84.84
2022-10-11T17:12:13.480Z,85.02
2022-10-11T17:14:41.040Z,84.84
2022-10-11T17:17:09.132Z,84.54
2022-10-11T17:19:40.219Z,85.18
2022-10-11T17:22:10.716Z,84.75
2022-10-11T17:24:37.754Z,85.04
2022-10-11T17:27:05.514Z,85.18
2022-10-11T17:29:32.046Z,85.46
2022-10-11T17:31:58.641Z,85.36
2022-10-11T17:34:25.484Z,85.44
2022-10-11T17:36:51.987Z,84.77
2022-10-11T17:39:21.163Z,85.78
2022-10-11T17:41:47.978Z,85.24
2022-10-11T17:44:17.230Z,85.29
2022-10-11T17:46:43.615Z,85.49
2022-10-11T17:49:11.721Z,85.85
2022-10-11T17:51:39.910Z,85.59
2022-10-11T17:54:12.122Z,85.33
2022-10-11T17:56:40.337Z,86.05
2022-10-11T17:59:08.079Z,85.82
2022-10-11T18:01:35.167Z,85.61
2022-10-11T18:04:04.912Z,85.56
2022-10-11T18:06:37.476Z,85.46
2022-10-11T18:09:04.637Z,86.06
2022-10-11T18:11:31.640Z,85.42
2022-10-11T18:13:58.084Z,85.32
2022-10-11T18:16:28.496Z,86.03
2022-10-11T18:18:57.252Z,85.94
2022-10-11T18:21:33.420Z,85.33
2022-10-11T18:24:02.250Z,86.22
2022-10-11T18:26:30.653Z,85.91
2022-10-11T18:28:58.302Z,86.02
2022-10-11T18:31:29.133Z,85.74
2022-10-11T18:33:56.132Z,86.05
2022-10-11T18:36:26.186Z,85.82
2022-10-11T18:38:55.427Z,85.58
2022-10-11T18:41:23.905Z,85.85
2022-10-11T18:43:55.768Z,85.73
2022-10-11T18:46:24.211Z,85.65
2022-10-11T18:48:53.003Z,85.74
2022-10-11T18:51:27.144Z,85.82
2022-10-11T18:53:54.638Z,85.71
2022-10-11T18:56:24.536Z,86.24
2022-10-11T18:58:52.919Z,86.03
2022-10-11T19:01:22.384Z,86.17
2022-10-11T19:03:52.401Z,85.64
2022-10-11T19:06:21.770Z,85.73
2022-10-11T19:08:51.012Z,86.06
2022-10-11T19:11:22.460Z,86.31
2022-10-11T19:13:58.884Z,86.14
2022-10-11T19:16:27.010Z,85.63
2022-10-11T19:18:54.237Z,86.25
2022-10-11T19:21:20.644Z,86.43
2022-10-11T19:23:48.452Z,86.21
2022-10-11T19:26:18.679Z,85.66
2022-10-11T19:28:45.778Z,86.30
2022-10-11T19:31:16.731Z,86.29
2022-10-11T19:33:45.248Z,86.38
2022-10-11T19:36:13.950Z,86.26
2022-10-11T19:38:43.821Z,86.18
2022-10-11T19:41:11.234Z,85.99
2022-10-11T19:43:37.671Z,86.73
2022-10-11T19:46:06.868Z,86.85
2022-10-11T19:48:37.978Z,86.42
2022-10-11T19:51:09.799Z,86.21
2022-10-11T19:53:36.586Z,86.08
2022-10-11T19:56:05.600Z,86.83
2022-10-11T19:58:32.041Z,86.23
2022-10-11T20:01:06.206Z,86.27
2022-10-11T20:03:34.281Z,86.41
2022-10-11T20:06:06.756Z,86.46
2022-10-11T20:08:34.407Z,86.86
2022-10-11T20:11:03.436Z,86.80
2022-10-11T20:13:34.719Z,86.81
2022-10-11T20:16:04.558Z,86.54
2022-10-11T20:18:31.605Z,86.38
2022-10-11T20:21:00.950Z,87.03
2022-10-11T20:23:27.943Z,87.06
2022-10-11T20:26:01.511Z,86.97
2022-10-11T20:28:30.691Z,86.68
2022-10-11T20:30:58.329Z,86.57
2022-10-11T20:33:25.000Z,86.45
2022-10-11T20:36:02.429Z,86.53
2022-10-11T20:38:30.596Z,86.54
2022-10-11T20:40:57.246Z,86.32
2022-10-11T20:43:24.458Z,86.81
2022-10-11T20:46:07.464Z,86.41
2022-10-11T20:48:35.782Z,87.31
2022-10-11T20:51:02.281Z,86.75
2022-10-11T20:53:28.974Z,86.82
2022-10-11T20:55:56.061Z,86.53
2022-10-11T20:58:23.470Z,86.85
2022-10-11T21:00:50.196Z,86.80
2022-10-11T21:03:17.646Z,86.86
2022-10-11T21:05:44.565Z,86.92
2022-10-11T21:08:11.395Z,86.27
2022-10-11T21:10:41.141Z,86.60
2022-10-11T21:13:08.079Z,87.09
2022-10-11T21:15:37.698Z,87.18
2022-10-11T21:18:04.532Z,87.11
2022-10-11T21:20:34.128Z,86.79
2022-10-11T21:23:00.669Z,86.72
2022-10-11T21:25:28.676Z,86.76
2022-10-11T21:27:55.599Z,87.35
2022-10-11T21:30:22.310Z,86.97
2022-10-11T21:32:48.767Z,87.42
2022-10-11T21:35:18.785Z,87.39
2022-10-11T21:37:45.134Z,87.12
2022-10-11T21:40:11.572Z,87.43
2022-10-11T21:42:38.267Z,87.32
2022-10-11T21:45:06.205Z,87.40
2022-10-11T21:47:35.237Z,87.36
2022-10-11T21:50:05.698Z,87.22
2022-10-11T21:52:32.190Z,87.12
2022-10-11T21:54:58.661Z,87.43
2022-10-11T21:57:25.055Z,87.14
2022-10-11T21:59:51.540Z,87.75
2022-10-11T22:02:18.387Z,87.93
2022-10-11T22:04:47.615Z,87.27
2022-10-11T22:07:13.963Z,87.45
2022-10-11T22:09:40.366Z,87.08
2022-10-11T22:12:06.880Z,87.59
2022-10-11T22:14:33.242Z,87.66
2022-10-11T22:16:59.707Z,87.62
2022-10-11T22:19:26.114Z,87.20
2022-10-11T22:21:52.565Z,88.05
2022-10-11T22:24:19.096Z,87.88
2022-10-11T22:26:45.767Z,87.54
2022-10-11T22:29:12.136Z,87.17
2022-10-11T22:31:38.588Z,87.56
2022-10-11T22:34:05.010Z,87.44
2022-10-11T22:36:31.529Z,87.60
2022-10-11T22:38:58.603Z,88.00
2022-10-11T22:41:25.099Z,87.90
2022-10-11T22:43:51.795Z,87.32
2022-10-11T22:46:18.888Z,88.34
2022-10-11T22:48:45.312Z,87.63
2022-10-11T22:51:11.771Z,87.83
2022-10-11T22:53:38.566Z,87.69
2022-10-11T22:56:05.239Z,87.38
2022-10-11T22:58:31.699Z,87.59
2022-10-11T23:00:58.336Z,88.19
2022-10-11T23:03:24.922Z,87.68
2022-10-11T23:05:56.594Z,87.38
2022-10-11T23:08:23.410Z,87.70
2022-10-11T23:10:49.783Z,88.00
2022-10-11T23:13:16.223Z,87.80
2022-10-11T23:15:42.665Z,88.14
2022-10-11T23:18:09.443Z,87.73
2022-10-11T23:20:38.583Z,88.45
2022-10-11T23:23:05.965Z,87.91
2022-10-11T23:25:32.388Z,87.68
2022-10-11T23:28:02.068Z,88.09
2022-10-11T23:30:29.663Z,87.70
2022-10-11T23:32:56.152Z,87.47
2022-10-11T23:35:23.032Z,87.97
2022-10-11T23:37:49.469Z,88.57
2022-10-11T23:40:16.063Z,88.13
2022-10-11T23:42:42.431Z,88.06
2022-10-11T23:45:09.260Z,87.65
2022-10-11T23:47:35.799Z,88.31
2022-10-11T23:50:02.342Z,87.68
2022-10-11T23:52:28.775Z,88.31
2022-10-11T23:54:56.140Z,88.00
2022-10-11T23:57:22.595Z,88.45
2022-10-11T23:59:48.982Z,88.92
